• Join FlightAware (Why Join?)
  • Login
  • US Flag 
12:21AM EDT


 

Airport Tracker/Info


-or-


 

Live Flight TrackerFlight Track Log ✈ DAL4969 ✈ 28-Dec-2013 ✈ KDTW - KOKC

Flight Track Log - Related Links

Times and Time Zones

All times are in EST time to prevent confusion due to time zone crossing. See the DAL4969 flight status page for this flight to view local times or setup timezone preferences in your user account.

Time Position Orientation Groundspeed Altitude Reporting Facility
EST Latitude Longitude Course Direction KTS MPH feet Rate Location/Type
08:35PM 42.2061 -83.3672 210° Southwest 143 165 1,300  Level Cleveland Center
08:36PM 42.1661 -83.3981 210° Southwest 174 200 3,300 1,920 Climbing Cleveland Center
08:37PM 42.1000 -83.4439 207° Southwest 221 254 5,800 2,520 Climbing Cleveland Center
08:37PM 42.0903 -83.4522 212° Southwest 252 290 6,000 2,880 Climbing Cleveland Center
08:38PM 42.0344 -83.4975 211° Southwest 256 295 8,600 2,700 Climbing Cleveland Center
08:38PM 42.0367 -83.4950 40° Northeast 254 292 8,700 2,280 Climbing Cleveland Center
08:39PM 41.9758 -83.5458 212° Southwest 256 295 11,100 1,920 Climbing Cleveland Center
08:40PM 41.9039 -83.6058 212° Southwest 287 330 12,700 1,740 Climbing Cleveland Center
08:41PM 41.8292 -83.6686 212° Southwest 310 357 14,700 1,800 Climbing Cleveland Center
08:42PM 41.7506 -83.7333 212° Southwest 326 375 16,400 1,500 Climbing Cleveland Center
08:43PM 41.6669 -83.8042 212° Southwest 346 398 17,800 1,380 Climbing Cleveland Center
08:45PM 41.5789 -83.8722 210° Southwest 362 417 19,300 1,440 Climbing Cleveland Center
08:46PM 41.4883 -83.9436 211° Southwest 375 432 20,800 1,440 Climbing Cleveland Center
08:47PM 41.3967 -84.0161 211° Southwest 383 441 22,300 1,560 Climbing Cleveland Center
08:48PM 41.2853 -84.1031 210° Southwest 384 442 24,100 1,620 Climbing Cleveland Center
08:49PM 41.2292 -84.2114 235° Southwest 381 438 25,700 1,500 Climbing Cleveland Center
08:50PM 41.1978 -84.3369 252° West 359 413 27,200 1,560 Climbing Cleveland Center
08:51PM 41.1686 -84.4569 252° West 347 399 29,000 1,680 Climbing Cleveland Center
08:52PM 41.1392 -84.5703 251° West 330 380 30,700 1,440 Climbing Cleveland Center
08:52PM 41.1197 -84.6467 251° West 314 361 31,700 1,380 Climbing Indianapolis Center
08:53PM 41.1000 -84.7217 251° West 312 359 32,700 1,140 Climbing Chicago Center
08:54PM 41.0672 -84.8222 247° West 301 346 33,600 780 Climbing Chicago Center
08:55PM 41.0303 -84.9219 244° Southwest 301 346 34,300 720 Climbing Chicago Center
08:56PM 40.9947 -85.0231 245° Southwest 302 348 35,100 720 Climbing Chicago Center
08:57PM 40.9583 -85.1247 245° Southwest 304 350 35,800 420 Climbing Chicago Center
08:58PM 40.9139 -85.2500 245° Southwest 309 356 36,000 60 Climbing Chicago Center
08:59PM 40.8742 -85.3578 244° Southwest 319 367 36,000 240 Level Chicago Center
09:00PM 40.8342 -85.4717 245° Southwest 335 386 36,600 660 Climbing Chicago Center
09:01PM 40.7942 -85.5819 244° Southwest 336 387 37,400 660 Climbing Chicago Center
09:02PM 40.7550 -85.6878 244° Southwest 328 377 38,000 240 Climbing Chicago Center
09:03PM 40.7169 -85.7936 245° Southwest 322 371 38,000  Level Chicago Center
09:04PM 40.6761 -85.9042 244° Southwest 327 376 38,000  Level Chicago Center
09:05PM 40.6358 -86.0158 245° Southwest 337 388 38,000  Level Chicago Center
09:06PM 40.5961 -86.1283 245° Southwest 340 391 38,000  Level Chicago Center
09:07PM 40.5450 -86.2653 244° Southwest 348 400 38,000  Level Chicago Center
09:08PM 40.5011 -86.3806 243° Southwest 352 405 38,000  Level Chicago Center
09:09PM 40.4594 -86.4956 245° Southwest 353 406 38,000  Level Chicago Center
09:11PM 40.4172 -86.6075 244° Southwest 348 400 38,000  Level Chicago Center
09:12PM 40.3744 -86.7186 243° Southwest 345 397 38,000  Level Chicago Center
09:13PM 40.3319 -86.8314 244° Southwest 345 397 38,000  Level Chicago Center
09:14PM 40.2900 -86.9431 244° Southwest 345 397 38,000  Level Chicago Center
09:15PM 40.2389 -87.0772 244° Southwest 345 397 38,000  Level Chicago Center
09:16PM 40.1961 -87.1889 243° Southwest 347 399 38,000  Level Chicago Center
09:17PM 40.1533 -87.2997 243° Southwest 346 398 38,000  Level Chicago Center
09:18PM 40.1103 -87.4122 243° Southwest 347 399 38,000  Level Chicago Center
09:19PM 40.0667 -87.5239 243° Southwest 348 400 38,000  Level Chicago Center
09:20PM 40.0239 -87.6361 244° Southwest 348 400 38,000  Level Chicago Center
09:21PM 39.9800 -87.7478 243° Southwest 349 402 38,000  Level Chicago Center
09:22PM 39.9264 -87.8836 243° Southwest 353 406 38,000  Level Chicago Center
09:23PM 39.8831 -87.9956 243° Southwest 350 403 38,000  Level Chicago Center
09:24PM 39.8269 -88.1308 242° Southwest 353 406 38,000  Level Indianapolis Center
09:25PM 39.8053 -88.1856 243° Southwest 348 400 38,000  Level Kansas City Center
09:26PM 39.7608 -88.3011 243° Southwest 352 405 38,000  Level Kansas City Center
09:27PM 39.7069 -88.4369 243° Southwest 352 405 38,000  Level Kansas City Center
09:28PM 39.6597 -88.5506 242° Southwest 352 405 38,000  Level Kansas City Center
09:29PM 39.6153 -88.6636 243° Southwest 354 407 38,000  Level Kansas City Center
09:30PM 39.5692 -88.7789 243° Southwest 357 411 38,000  Level Kansas City Center
09:31PM 39.5236 -88.8925 243° Southwest 356 410 38,000  Level Kansas City Center
09:32PM 39.4769 -89.0075 242° Southwest 359 413 38,000  Level Kansas City Center
09:33PM 39.4300 -89.1203 242° Southwest 357 411 38,000  Level Kansas City Center
09:34PM 39.3800 -89.2417 242° Southwest 360 414 38,000  Level Kansas City Center
09:35PM 39.3333 -89.3550 242° Southwest 359 413 38,000  Level Kansas City Center
09:36PM 39.2869 -89.4692 242° Southwest 360 414 38,000  Level Kansas City Center
09:37PM 39.2394 -89.5831 242° Southwest 361 415 38,000  Level Kansas City Center
09:38PM 39.1922 -89.6972 242° Southwest 361 415 38,000  Level Kansas City Center
09:39PM 39.1431 -89.8106 241° Southwest 364 419 38,000  Level Kansas City Center
09:40PM 39.0961 -89.9244 242° Southwest 363 418 38,000  Level Kansas City Center
09:41PM 39.0397 -90.0628 242° Southwest 365 420 38,000  Level Kansas City Center
09:42PM 38.9911 -90.1775 241° Southwest 367 422 38,000  Level Kansas City Center
09:43PM 38.9433 -90.2914 242° Southwest 367 422 38,000  Level Kansas City Center
09:44PM 38.8989 -90.3961 241° Southwest 364 419 38,000  Level Kansas City Center
09:45PM 38.8511 -90.5125 242° Southwest 366 421 38,000  Level Kansas City Center
09:46PM 38.7772 -90.6447 234° Southwest 371 427 38,000  Level Kansas City Center
09:47PM 38.7308 -90.7361 237° Southwest 373 429 38,000  Level Kansas City Center
09:48PM 38.6619 -90.8733 237° Southwest 380 437 38,000  Level Kansas City Center
09:49PM 38.6039 -90.9861 237° Southwest 381 438 38,000  Level Kansas City Center
09:50PM 38.5461 -91.0989 237° Southwest 381 438 38,000  Level Kansas City Center
09:51PM 38.4872 -91.2131 237° Southwest 383 441 38,000  Level Kansas City Center
09:52PM 38.4353 -91.3331 241° Southwest 391 450 38,000  Level Kansas City Center
09:53PM 38.3889 -91.4603 245° Southwest 391 450 38,000  Level Kansas City Center
09:54PM 38.3400 -91.5853 244° Southwest 393 452 38,000  Level Kansas City Center
09:55PM 38.2933 -91.7094 244° Southwest 390 449 38,000  Level Kansas City Center
09:56PM 38.2450 -91.8342 244° Southwest 391 450 38,000  Level Kansas City Center
09:57PM 38.1961 -91.9597 244° Southwest 395 455 38,000  Level Kansas City Center
09:58PM 38.1394 -92.1031 243° Southwest 396 456 38,000  Level Kansas City Center
09:59PM 38.0903 -92.2283 244° Southwest 401 461 38,000  Level Kansas City Center
10:00PM 38.0397 -92.3550 243° Southwest 402 463 38,000  Level Kansas City Center
10:01PM 37.9908 -92.4814 244° Southwest 403 464 38,000  Level Kansas City Center
10:02PM 37.9406 -92.6061 243° Southwest 401 461 38,000  Level Kansas City Center
10:03PM 37.8903 -92.7331 243° Southwest 402 463 38,000  Level Kansas City Center
10:04PM 37.8414 -92.8578 244° Southwest 399 459 38,000  Level Kansas City Center
10:05PM 37.7897 -92.9856 243° Southwest 403 464 38,000  Level Kansas City Center
10:06PM 37.7389 -93.1150 244° Southwest 407 468 38,000  Level Kansas City Center
10:07PM 37.6864 -93.2433 243° Southwest 409 471 38,000  Level Kansas City Center
10:08PM 37.6347 -93.3733 243° Southwest 412 474 38,000  Level Kansas City Center
10:09PM 37.5711 -93.5283 243° Southwest 414 476 38,000  Level Kansas City Center
10:10PM 37.5181 -93.6583 243° Southwest 416 479 38,000  Level Kansas City Center
10:11PM 37.4656 -93.7872 243° Southwest 414 476 38,000  Level Kansas City Center
10:12PM 37.4117 -93.9172 242° Southwest 418 481 38,000  Level Kansas City Center
10:14PM 37.3572 -94.0478 242° Southwest 419 482 38,000  Level Kansas City Center
10:15PM 37.3017 -94.1839 243° Southwest 418 481 38,000  Level Kansas City Center
10:16PM 37.2467 -94.3144 242° Southwest 421 484 38,000  Level Kansas City Center
10:17PM 37.1925 -94.4447 242° Southwest 422 486 38,000  Level Kansas City Center
10:18PM 37.1372 -94.5753 242° Southwest 422 486 38,000  Level Kansas City Center
10:19PM 37.0825 -94.7067 242° Southwest 425 489 38,000  Level Kansas City Center
10:20PM 37.0264 -94.8361 242° Southwest 424 488 38,000  Level Kansas City Center
10:21PM 36.9708 -94.9686 242° Southwest 427 491 38,000  Level Kansas City Center
10:22PM 36.9156 -95.0986 242° Southwest 426 490 38,000  Level Kansas City Center
10:23PM 36.8592 -95.2303 242° Southwest 429 494 38,000  Level Kansas City Center
10:24PM 36.8036 -95.3603 242° Southwest 428 493 38,000  Level Kansas City Center
10:25PM 36.7467 -95.4903 241° Southwest 429 494 38,000  Level Kansas City Center
10:26PM 36.6903 -95.6208 242° Southwest 430 495 38,000 -60 Level Kansas City Center
10:27PM 36.6217 -95.7778 241° Southwest 433 498 37,900 -300 Descending Kansas City Center
10:28PM 36.5639 -95.9108 242° Southwest 438 504 37,400 -480 Descending Kansas City Center
10:29PM 36.5042 -96.0472 241° Southwest 447 514 37,000 -240 Descending Kansas City Center
10:30PM 36.4439 -96.1833 241° Southwest 451 519 37,000  Level Kansas City Center
10:31PM 36.3836 -96.3189 241° Southwest 450 518 37,000  Level Kansas City Center
10:32PM 36.3225 -96.4542 241° Southwest 450 518 37,000 -1,380 Level Kansas City Center
10:33PM 36.2622 -96.5914 241° Southwest 452 520 34,300 -3,360 Descending Kansas City Center
10:34PM 36.1992 -96.7300 241° Southwest 458 527 30,300 -4,020 Descending Kansas City Center
10:35PM 36.1364 -96.8706 241° Southwest 459 528 26,200 -4,020 Descending Kansas City Center
10:36PM 36.0775 -97.0022 241° Southwest 446 513 22,200 -3,960 Descending Kansas City Center
10:37PM 36.0192 -97.1294 240° Southwest 436 502 18,200 -3,840 Descending Kansas City Center
10:38PM 35.9633 -97.2525 241° Southwest 426 490 14,400 -3,600 Descending Kansas City Center
10:39PM 35.9033 -97.3931 242° Southwest 399 459 11,000 -2,100 Descending Kansas City Center
10:40PM 35.8522 -97.4772 233° Southwest 346 398 10,200 -1,200 Descending Kansas City Center
10:41PM 35.7814 -97.5214 207° Southwest 295 339 8,600 -1,680 Descending Kansas City Center
10:42PM 35.7133 -97.5592 204° Southwest 278 320 6,800 -1,800 Descending Kansas City Center
10:43PM 35.6467 -97.5914 201° Southwest 266 306 5,000 -1,500 Descending Kansas City Center
10:44PM 35.5731 -97.5897 179° South 239 275 3,800 -1,140 Descending Fort Worth Center
10:45PM 35.5328 -97.5897 180° South 205 236 3,100 -900 Descending Fort Worth Center
10:45PM 35.5161 -97.5889 178° South 209 241 2,900 -300 Descending Fort Worth Center
10:46PM 35.4822 -97.5906 182° South 146 168 2,800 -240 Descending Fort Worth Center
10:46PM 35.4747 -97.5889 170° South 142 163 2,700 -600 Descending Fort Worth Center
10:47PM 35.4464 -97.5892 180° South 119 137 2,200 -720 Descending Fort Worth Center
10:47PM 35.4364 -97.5894 181° South 129 148 2,000 -600 Descending Fort Worth Center
10:48PM 35.4147 -97.5894 180° South 114 131 1,600 -540 Descending Fort Worth Center
10:48PM 35.4111 -97.5908 197° South 120 138 1,500 -360 Descending Fort Worth Center
10:50PM 35.3931 -97.6008 195° South  Level Estimated